Charlton, MA (01507)

6:39 AM EDT on May 06, 2015 (GMT -0400)
Buffumville West | | Change Station
CLOSE
Current Station
Personal Weather Station
Location: Charlton, MA
Elevation: 669 ft
Nearby Weather Stations

Elev 669 ft 42.12 °N, 71.92 °W | Updated 20 seconds ago

Mostly Cloudy
Mostly Cloudy
60.1 °F
Feels Like 60.1 °F
N
1.5
Wind Variable Wind from NNE
Gusts 4.6 mph

Today
High -- | Low -- °F
--% Chance of Precip.
Yesterday
High -- | Low -- °F
Precip. -- in
5:37 AM 7:52 PM
Waning Gibbous, 94% visible
Pressure 30.27 in
Visibility 10.0 miles
Clouds Clear
Dew Point 33 °F
Humidity 36%
Rainfall 0.00 in
Snow Depth Not available.
UV 0 out of 12
Pollen 9.70 out of 12
Air Quality Not available.
Flu Activity Widespread
METAR KORH 060954Z AUTO 02007KT 10SM CLR 14/M02 A3027 RMK AO2 SLP248 T01441017

More Conditions Fewer Conditions

Pressure 30.27 in
Visibility 10.0 miles
Clouds Clear
Dew Point 33 °F
Humidity 36%
Rainfall 0.00 in
Snow Depth Not available.
UV 0 out of 12
Pollen 9.70 out of 12
Air Quality Not available.
Flu Activity Widespread
METAR KORH 060954Z AUTO 02007KT 10SM CLR 14/M02 A3027 RMK AO2 SLP248 T01441017

More Conditions Fewer Conditions

10-Day Weather Forecast

Almanac

Astronomy

May. 06, 2015 Rise Set
Actual Time
Civil Twilight
Nautical Twilight
Astronomical Twilight
Moon
Length of Visible Light
Length of Day
Tomorrow will be .
, % of the Moon is Illuminated

Today's Extremes

State Highs State Lows

Community

WunderPhotos

Upload Photos

1,818,859 photos uploaded!

WunderBlogs® & News

Nearby

Air Quality

  Air Quality AQ Index Pollutant
Not available.

Snow Depth

Station Depth Elevation

Earthquake Activity

City Distance Mag. Time & Date
Minimum magnitude displayed is 2.5.

Coastal Water Temperatures

Place Temperature

Stations

Nearby Weather Stations

Station Location Temp. Windchill Dew Point Humidity Wind Precip. Elev Updated Type